createdAt,value
2018-11-02T00:00:14.457Z,4.50
2018-11-02T00:03:17.436Z,4.50
2018-11-02T00:06:20.738Z,4.60
2018-11-02T00:09:23.747Z,4.70
2018-11-02T00:12:26.760Z,4.80
2018-11-02T00:15:29.808Z,4.80
2018-11-02T00:18:33.040Z,4.80
2018-11-02T00:21:36.118Z,4.80
2018-11-02T00:24:39.329Z,4.90
2018-11-02T00:27:42.384Z,4.70
2018-11-02T00:30:45.404Z,4.70
2018-11-02T00:33:48.530Z,4.50
2018-11-02T00:36:51.600Z,4.40
2018-11-02T00:39:54.651Z,4.40
2018-11-02T00:42:57.671Z,4.50
2018-11-02T00:46:00.733Z,4.60
2018-11-02T00:49:04.288Z,4.50
2018-11-02T00:52:07.336Z,4.40
2018-11-02T00:55:10.712Z,4.30
2018-11-02T00:58:13.724Z,4.20
2018-11-02T01:01:16.849Z,4.20
2018-11-02T01:04:20.008Z,4.20
2018-11-02T01:07:23.032Z,4.10
2018-11-02T01:10:26.092Z,4.00
2018-11-02T01:13:29.136Z,3.90
2018-11-02T01:16:32.182Z,3.90
2018-11-02T01:19:35.195Z,3.70
2018-11-02T01:22:38.360Z,3.60
2018-11-02T01:25:41.487Z,3.40
2018-11-02T01:28:44.551Z,3.30
2018-11-02T01:31:47.559Z,3.20
2018-11-02T01:34:50.504Z,3.00
2018-11-02T01:37:53.703Z,2.90
2018-11-02T01:40:56.812Z,2.90
2018-11-02T01:43:59.831Z,2.80
2018-11-02T01:47:02.896Z,2.70
2018-11-02T01:50:06.425Z,2.60
2018-11-02T01:53:09.492Z,2.60
2018-11-02T01:56:12.824Z,2.50
2018-11-02T01:59:15.881Z,2.50
2018-11-02T02:02:18.900Z,2.50
2018-11-02T02:05:21.985Z,2.50
2018-11-02T02:08:25.084Z,2.50
2018-11-02T02:11:28.155Z,2.30
2018-11-02T02:14:31.170Z,2.40
2018-11-02T02:17:34.236Z,2.30
2018-11-02T02:20:37.269Z,2.40
2018-11-02T02:23:40.296Z,2.40
2018-11-02T02:26:43.312Z,2.40
2018-11-02T02:29:46.296Z,2.30
2018-11-02T02:32:49.423Z,2.30
2018-11-02T02:35:52.481Z,2.20
2018-11-02T02:38:55.511Z,2.10
2018-11-02T02:41:58.564Z,2.10
2018-11-02T02:45:01.897Z,2.10
2018-11-02T02:48:05.263Z,2.00
2018-11-02T02:51:08.281Z,2.10
2018-11-02T02:54:11.448Z,2.10
2018-11-02T02:57:14.620Z,2.10
2018-11-02T03:00:17.734Z,2.00
2018-11-02T03:03:21.067Z,2.00
2018-11-02T03:06:24.119Z,2.00
2018-11-02T03:09:27.462Z,2.00
2018-11-02T03:12:31.536Z,2.10
2018-11-02T03:15:34.588Z,2.10
2018-11-02T03:18:37.712Z,2.10
2018-11-02T03:21:40.743Z,2.00
2018-11-02T03:24:43.812Z,2.10
2018-11-02T03:27:47.136Z,2.00
2018-11-02T03:30:50.096Z,2.00
2018-11-02T03:33:53.112Z,2.00
2018-11-02T03:36:56.184Z,2.00
2018-11-02T03:39:59.203Z,1.90
2018-11-02T03:43:02.261Z,2.00
2018-11-02T03:46:05.688Z,2.10
2018-11-02T03:49:08.955Z,2.20
2018-11-02T03:52:12.179Z,2.10
2018-11-02T03:55:15.344Z,2.10
2018-11-02T03:58:18.483Z,2.10
2018-11-02T04:01:21.741Z,2.10
2018-11-02T04:04:24.756Z,2.00
2018-11-02T04:07:28.435Z,2.00
2018-11-02T04:10:32.683Z,2.00
2018-11-02T04:13:35.752Z,2.00
2018-11-02T04:16:38.748Z,1.90
2018-11-02T04:19:41.704Z,1.80
2018-11-02T04:22:44.743Z,1.80
2018-11-02T04:25:47.835Z,1.90
2018-11-02T04:28:50.936Z,2.00
2018-11-02T04:31:54.000Z,2.00
2018-11-02T04:34:57.080Z,1.80
2018-11-02T04:38:00.076Z,1.80
2018-11-02T04:41:03.108Z,1.70
2018-11-02T04:44:06.822Z,1.70
2018-11-02T04:47:09.936Z,1.70
2018-11-02T04:50:12.956Z,1.80
2018-11-02T04:53:15.991Z,1.70
2018-11-02T04:56:19.040Z,1.70
2018-11-02T04:59:22.128Z,1.70
2018-11-02T05:02:25.111Z,1.70
2018-11-02T05:05:28.348Z,1.70
2018-11-02T05:08:31.412Z,1.80
2018-11-02T05:11:34.613Z,1.80
2018-11-02T05:14:37.600Z,1.80
2018-11-02T05:17:40.619Z,1.80
2018-11-02T05:20:43.697Z,1.80
2018-11-02T05:23:46.747Z,1.80
2018-11-02T05:26:49.764Z,1.80
2018-11-02T05:29:52.887Z,1.70
2018-11-02T05:32:55.951Z,1.70
2018-11-02T05:35:58.968Z,1.70
2018-11-02T05:39:02.119Z,1.70
2018-11-02T05:42:05.151Z,1.60
2018-11-02T05:45:09.041Z,1.60
2018-11-02T05:48:12.102Z,1.50
2018-11-02T05:51:15.120Z,1.50
2018-11-02T05:54:18.371Z,1.40
2018-11-02T05:57:21.304Z,1.50
2018-11-02T06:00:24.431Z,1.50
2018-11-02T06:03:27.491Z,1.60
2018-11-02T06:06:30.611Z,1.60
2018-11-02T06:09:33.671Z,1.60
2018-11-02T06:12:36.847Z,1.60
2018-11-02T06:15:39.881Z,1.50
2018-11-02T06:18:42.900Z,1.40
2018-11-02T06:21:45.945Z,1.30
2018-11-02T06:24:48.963Z,1.30
2018-11-02T06:27:52.023Z,1.30
2018-11-02T06:30:55.161Z,1.30
2018-11-02T06:33:58.217Z,1.40
2018-11-02T06:37:01.232Z,1.40
2018-11-02T06:40:04.612Z,1.40
2018-11-02T06:43:08.656Z,1.40
2018-11-02T06:46:11.688Z,1.40
2018-11-02T06:49:14.843Z,1.50
2018-11-02T06:52:17.935Z,1.60
2018-11-02T06:55:21.016Z,1.70
2018-11-02T06:58:24.080Z,1.60
2018-11-02T07:01:27.096Z,1.70
2018-11-02T07:04:30.160Z,1.80
2018-11-02T07:07:33.417Z,1.90
2018-11-02T07:10:36.257Z,2.00
2018-11-02T07:13:39.372Z,2.00
2018-11-02T07:16:42.435Z,2.10
2018-11-02T07:19:45.452Z,2.20
2018-11-02T07:22:48.493Z,2.30
2018-11-02T07:25:51.644Z,2.40
2018-11-02T07:28:54.700Z,2.50
2018-11-02T07:31:57.716Z,2.60
2018-11-02T07:35:00.760Z,2.80
2018-11-02T07:38:03.911Z,3.00
2018-11-02T07:41:06.968Z,3.20
2018-11-02T07:44:09.983Z,3.50
2018-11-02T07:47:13.056Z,3.80
2018-11-02T07:50:16.305Z,4.20
2018-11-02T07:53:19.342Z,4.40
2018-11-02T07:56:22.473Z,4.60
2018-11-02T07:59:25.524Z,4.80
2018-11-02T08:02:28.619Z,5.00
2018-11-02T08:05:31.603Z,5.10
2018-11-02T08:08:34.624Z,5.20
2018-11-02T08:11:37.840Z,5.40
2018-11-02T08:14:40.857Z,5.50
2018-11-02T08:17:43.943Z,5.60
2018-11-02T08:20:46.895Z,5.70
2018-11-02T08:23:49.860Z,5.90
2018-11-02T08:26:53.816Z,6.30
2018-11-02T08:29:56.960Z,6.60
2018-11-02T08:33:00.121Z,6.90
2018-11-02T08:36:03.147Z,7.50
2018-11-02T08:39:08.199Z,7.70
2018-11-02T08:42:11.176Z,8.00
2018-11-02T08:45:14.499Z,8.30
2018-11-02T08:48:17.444Z,8.50
2018-11-02T08:51:20.483Z,8.70
2018-11-02T08:54:23.444Z,9.00
2018-11-02T08:57:26.507Z,9.10
2018-11-02T09:00:29.528Z,9.20
2018-11-02T09:03:32.551Z,9.30
2018-11-02T09:06:35.615Z,9.20
2018-11-02T09:09:38.743Z,9.20
2018-11-02T09:12:41.799Z,9.20
2018-11-02T09:15:44.792Z,9.20
2018-11-02T09:18:47.898Z,9.40
2018-11-02T09:21:50.795Z,9.70
2018-11-02T09:24:53.971Z,9.70
2018-11-02T09:27:56.988Z,9.70
2018-11-02T09:31:00.044Z,9.80
2018-11-02T09:34:03.104Z,9.90
2018-11-02T09:37:06.128Z,10.10
2018-11-02T09:40:10.483Z,10.20
2018-11-02T09:43:13.550Z,10.30
2018-11-02T09:46:16.940Z,10.40
2018-11-02T09:49:19.945Z,10.40
2018-11-02T09:52:22.956Z,10.50
2018-11-02T09:55:26.019Z,10.40
2018-11-02T09:58:29.241Z,10.50
2018-11-02T10:01:32.311Z,10.60
2018-11-02T10:04:35.640Z,10.80
2018-11-02T10:07:39.611Z,10.80
2018-11-02T10:10:42.631Z,10.90
2018-11-02T10:13:45.695Z,11.20
2018-11-02T10:16:48.724Z,11.30
2018-11-02T10:19:51.759Z,11.40
2018-11-02T10:22:54.799Z,11.60
2018-11-02T10:25:58.803Z,11.80
2018-11-02T10:29:02.324Z,12.00
2018-11-02T10:32:05.460Z,12.20
2018-11-02T10:35:09.015Z,12.40
2018-11-02T10:38:12.161Z,12.70
2018-11-02T10:41:17.816Z,13.40
2018-11-02T10:44:25.159Z,13.80
2018-11-02T10:47:28.251Z,13.90
2018-11-02T10:50:31.312Z,13.60
2018-11-02T10:53:34.436Z,13.60
2018-11-02T10:56:37.678Z,13.60
2018-11-02T10:59:40.739Z,13.50
2018-11-02T11:02:43.760Z,12.90
2018-11-02T11:05:46.803Z,12.80
2018-11-02T11:08:49.848Z,12.80
2018-11-02T11:11:52.936Z,12.80
2018-11-02T11:14:55.948Z,13.40
2018-11-02T11:17:59.051Z,13.70
2018-11-02T11:21:02.163Z,13.80
2018-11-02T11:24:05.275Z,15.50
2018-11-02T11:27:08.320Z,17.20
2018-11-02T11:30:17.441Z,18.60
2018-11-02T11:33:20.444Z,19.70
2018-11-02T11:36:24.402Z,18.30
2018-11-02T11:39:27.482Z,17.00
2018-11-02T11:42:30.467Z,15.60
2018-11-02T11:45:33.532Z,14.70
2018-11-02T11:48:36.670Z,15.70
2018-11-02T11:51:39.721Z,16.80
2018-11-02T11:54:42.748Z,17.60
2018-11-02T11:57:45.777Z,18.10
2018-11-02T12:00:48.856Z,19.00
2018-11-02T12:03:51.884Z,19.20
2018-11-02T12:06:54.900Z,19.50
2018-11-02T12:09:58.481Z,19.60
2018-11-02T12:13:01.595Z,19.20
2018-11-02T12:16:04.995Z,19.10
2018-11-02T12:19:07.988Z,20.30
2018-11-02T12:22:11.048Z,20.00
2018-11-02T12:25:14.798Z,19.30
2018-11-02T12:28:17.912Z,19.10
2018-11-02T12:31:20.851Z,19.10
2018-11-02T12:34:23.831Z,20.10
2018-11-02T12:37:26.832Z,21.30
2018-11-02T12:40:29.903Z,19.50
2018-11-02T12:43:32.966Z,18.70
2018-11-02T12:46:35.898Z,17.90
2018-11-02T12:49:39.328Z,18.40
2018-11-02T12:52:42.723Z,19.40
2018-11-02T12:55:45.716Z,20.20
2018-11-02T12:58:48.676Z,20.60
2018-11-02T13:01:51.802Z,19.30
2018-11-02T13:04:54.864Z,17.10
2018-11-02T13:07:57.887Z,15.90
2018-11-02T13:11:00.944Z,15.20
2018-11-02T13:14:03.963Z,14.90
2018-11-02T13:17:07.039Z,14.70
2018-11-02T13:20:10.796Z,14.50
2018-11-02T13:23:13.728Z,14.40
2018-11-02T13:26:16.929Z,14.30
2018-11-02T13:29:20.012Z,14.30
2018-11-02T13:32:23.420Z,14.10
2018-11-02T13:35:26.405Z,14.10
2018-11-02T13:38:29.424Z,14.10
2018-11-02T13:41:32.483Z,14.10
2018-11-02T13:44:35.584Z,14.20
2018-11-02T13:47:40.028Z,14.40
2018-11-02T13:50:43.025Z,14.40
2018-11-02T13:53:46.084Z,14.30
2018-11-02T13:56:49.107Z,14.30
2018-11-02T13:59:52.172Z,14.30
2018-11-02T14:02:55.187Z,14.40
2018-11-02T14:05:58.261Z,14.40
2018-11-02T14:09:01.271Z,14.30
2018-11-02T14:12:04.441Z,14.00
2018-11-02T14:15:09.819Z,13.80
2018-11-02T14:18:12.923Z,13.70
2018-11-02T14:21:15.872Z,13.50
2018-11-02T14:24:18.859Z,13.40
2018-11-02T14:27:21.880Z,13.20
2018-11-02T14:30:24.940Z,13.20
2018-11-02T14:33:27.960Z,13.20
2018-11-02T14:36:31.021Z,13.20
2018-11-02T14:39:34.043Z,13.20
2018-11-02T14:42:37.955Z,13.10
2018-11-02T14:45:41.056Z,13.10
2018-11-02T14:48:44.107Z,13.00
2018-11-02T14:51:47.444Z,12.90
2018-11-02T14:54:50.505Z,12.90
2018-11-02T14:57:53.604Z,12.90
2018-11-02T15:00:56.668Z,12.90
2018-11-02T15:03:59.939Z,12.90
2018-11-02T15:07:02.955Z,13.00
2018-11-02T15:10:06.083Z,12.90
2018-11-02T15:13:09.266Z,12.70
2018-11-02T15:16:12.283Z,12.60
2018-11-02T15:19:15.343Z,12.40
2018-11-02T15:22:18.376Z,12.20
2018-11-02T15:25:21.428Z,12.00
2018-11-02T15:28:24.443Z,11.70
2018-11-02T15:31:27.408Z,11.60
2018-11-02T15:34:30.497Z,11.30
2018-11-02T15:37:33.520Z,11.10
2018-11-02T15:40:36.588Z,10.90
2018-11-02T15:43:39.604Z,10.70
2018-11-02T15:46:42.674Z,10.60
2018-11-02T15:49:45.699Z,10.30
2018-11-02T15:52:48.796Z,10.20
2018-11-02T15:55:51.768Z,9.90
2018-11-02T15:58:54.831Z,9.70
2018-11-02T16:01:57.956Z,9.50
2018-11-02T16:05:01.017Z,9.40
2018-11-02T16:08:04.148Z,9.20
2018-11-02T16:11:07.203Z,9.00
2018-11-02T16:14:10.457Z,8.90
2018-11-02T16:17:13.491Z,8.80
2018-11-02T16:20:16.731Z,8.60
2018-11-02T16:23:19.572Z,8.50
2018-11-02T16:26:22.596Z,8.50
2018-11-02T16:29:25.656Z,8.50
2018-11-02T16:32:28.687Z,8.50
2018-11-02T16:35:31.740Z,8.50
2018-11-02T16:38:34.763Z,8.40
2018-11-02T16:41:38.127Z,8.30
2018-11-02T16:44:41.245Z,8.20
2018-11-02T16:47:44.396Z,8.10
2018-11-02T16:50:47.436Z,8.00
2018-11-02T16:53:50.509Z,7.90
2018-11-02T16:56:53.600Z,7.80
2018-11-02T16:59:56.584Z,7.70
2018-11-02T17:02:59.916Z,7.60
2018-11-02T17:06:03.015Z,7.50
2018-11-02T17:09:09.020Z,7.40
2018-11-02T17:12:12.028Z,7.40
2018-11-02T17:15:15.049Z,7.20
2018-11-02T17:18:18.222Z,7.00
2018-11-02T17:21:21.111Z,6.90
2018-11-02T17:24:24.088Z,6.70
2018-11-02T17:27:27.496Z,6.60
2018-11-02T17:30:30.479Z,6.60
2018-11-02T17:33:33.837Z,6.40
2018-11-02T17:36:36.966Z,6.40
2018-11-02T17:39:40.117Z,6.20
2018-11-02T17:42:43.667Z,6.20
2018-11-02T17:45:46.699Z,6.10
2018-11-02T17:48:49.755Z,6.00
2018-11-02T17:51:52.771Z,5.90
2018-11-02T17:54:55.736Z,5.80
2018-11-02T17:57:58.763Z,5.70
2018-11-02T18:01:01.820Z,5.60
2018-11-02T18:04:05.292Z,5.60
2018-11-02T18:07:08.307Z,5.50
2018-11-02T18:10:12.383Z,5.50
2018-11-02T18:13:15.423Z,5.50
2018-11-02T18:16:18.852Z,5.50
2018-11-02T18:19:21.913Z,5.40
2018-11-02T18:22:25.051Z,5.30
2018-11-02T18:25:27.999Z,5.20
2018-11-02T18:28:31.324Z,5.20
2018-11-02T18:31:34.487Z,5.30
2018-11-02T18:34:37.552Z,5.30
2018-11-02T18:37:40.568Z,5.30
2018-11-02T18:40:43.588Z,5.30
2018-11-02T18:43:46.583Z,5.30
2018-11-02T18:46:49.648Z,5.20
2018-11-02T18:49:52.713Z,5.20
2018-11-02T18:52:55.859Z,5.10
2018-11-02T18:55:58.915Z,5.00
2018-11-02T18:59:01.942Z,5.00
2018-11-02T19:02:05.620Z,4.90
2018-11-02T19:05:14.412Z,4.80
2018-11-02T19:08:17.440Z,4.80
2018-11-02T19:11:20.456Z,4.70
2018-11-02T19:14:23.555Z,4.70
2018-11-02T19:17:26.609Z,4.60
2018-11-02T19:20:29.749Z,4.50
2018-11-02T19:23:32.691Z,4.40
2018-11-02T19:26:35.711Z,4.40
2018-11-02T19:29:38.777Z,4.30
2018-11-02T19:32:41.921Z,4.30
2018-11-02T19:35:44.960Z,4.10
2018-11-02T19:38:48.054Z,4.00
2018-11-02T19:41:51.092Z,4.10
2018-11-02T19:44:54.064Z,4.00
2018-11-02T19:48:02.040Z,4.00
2018-11-02T19:51:05.450Z,4.00
2018-11-02T19:54:08.464Z,4.00
2018-11-02T19:57:11.523Z,3.90
2018-11-02T20:00:15.694Z,3.90
2018-11-02T20:03:18.736Z,3.90
2018-11-02T20:06:21.755Z,3.80
2018-11-02T20:09:24.837Z,3.70
2018-11-02T20:12:27.836Z,3.80
2018-11-02T20:15:30.800Z,3.80
2018-11-02T20:18:33.818Z,3.80
2018-11-02T20:21:36.946Z,3.80
2018-11-02T20:24:39.971Z,3.80
2018-11-02T20:27:43.203Z,3.90
2018-11-02T20:30:46.260Z,3.90
2018-11-02T20:33:49.280Z,3.90
2018-11-02T20:36:52.344Z,4.00
2018-11-02T20:39:55.383Z,4.10
2018-11-02T20:42:58.428Z,4.10
2018-11-02T20:46:01.440Z,4.20
2018-11-02T20:49:04.747Z,4.20
2018-11-02T20:52:07.835Z,4.10
2018-11-02T20:55:12.127Z,4.10
2018-11-02T20:58:15.371Z,4.10
2018-11-02T21:01:18.415Z,4.10
2018-11-02T21:04:21.440Z,4.10
2018-11-02T21:07:24.506Z,4.10
2018-11-02T21:10:27.628Z,4.00
2018-11-02T21:13:30.684Z,4.00
2018-11-02T21:16:33.908Z,4.00
2018-11-02T21:19:37.024Z,4.00
2018-11-02T21:22:40.512Z,4.00
2018-11-02T21:25:43.568Z,4.10
2018-11-02T21:28:46.672Z,4.10
2018-11-02T21:31:49.659Z,4.10
2018-11-02T21:34:52.798Z,4.10
2018-11-02T21:37:55.856Z,4.10
2018-11-02T21:40:58.856Z,4.10
2018-11-02T21:44:01.920Z,4.10
2018-11-02T21:47:05.201Z,4.10
2018-11-02T21:50:08.757Z,4.00
2018-11-02T21:53:11.843Z,4.00
2018-11-02T21:56:15.009Z,4.00
2018-11-02T21:59:18.132Z,3.90
2018-11-02T22:02:21.192Z,3.90
2018-11-02T22:05:24.216Z,3.90
2018-11-02T22:08:27.272Z,3.90
2018-11-02T22:11:30.378Z,3.90
2018-11-02T22:14:33.336Z,4.00
2018-11-02T22:17:36.419Z,3.90
2018-11-02T22:20:39.441Z,3.90
2018-11-02T22:23:42.461Z,3.90
2018-11-02T22:26:45.528Z,3.90
2018-11-02T22:29:48.584Z,3.80
2018-11-02T22:32:51.607Z,3.70
2018-11-02T22:35:54.627Z,3.70
2018-11-02T22:38:57.687Z,3.80
2018-11-02T22:42:00.707Z,3.90
2018-11-02T22:45:04.322Z,3.90
2018-11-02T22:48:13.112Z,4.00
2018-11-02T22:51:16.076Z,4.00
2018-11-02T22:54:19.132Z,4.10
2018-11-02T22:57:22.187Z,4.10
2018-11-02T23:00:25.304Z,4.10
2018-11-02T23:03:28.372Z,4.10
2018-11-02T23:06:31.396Z,4.10
2018-11-02T23:09:34.452Z,4.10
2018-11-02T23:12:37.684Z,4.10
2018-11-02T23:15:40.741Z,4.20
2018-11-02T23:18:43.760Z,4.20
2018-11-02T23:21:46.823Z,4.20
2018-11-02T23:24:49.844Z,4.10
2018-11-02T23:27:52.936Z,4.10
2018-11-02T23:30:55.999Z,4.10
2018-11-02T23:33:59.125Z,4.10
2018-11-02T23:37:02.183Z,4.10
2018-11-02T23:40:05.882Z,4.00
2018-11-02T23:43:08.879Z,4.00
2018-11-02T23:46:12.111Z,4.00
2018-11-02T23:49:15.278Z,4.00
2018-11-02T23:52:18.400Z,4.10
2018-11-02T23:55:21.456Z,4.10
2018-11-02T23:58:24.479Z,4.10
